Grande Europa — ICGE — position and weather

sailwx.info

Track history (hours):
 
Tides and Currents Weather Stations Pressure Air Temp Water Temp Dewpoint Dewpoint Depression Visibility Wind Speed Wind Dir Waves Ship Positions

Grande Europa

Last reported at 2016-Jul-29 01:27 UTC. Time now 2016-Jul-29 02:06 UTC.
Position N 36°00' W 005°07'.

Length 183 m; draft 8.9 m.

Type: Cargo ship. MMSI: 247206000.

Date/timePositionNaut miles runAvg speedWind from/ knotsBaromVisibWave heightAir tempDewpointWater temp
2016-Jul-29 01:27N 36°00' W 005°07'1719.2
2016-Jul-29 00:33N 35°57' W 005°28'2919.2
2016-Jul-28 23:04N 35°54' W 006°03'1018.9
2016-Jul-28 22:33N 35°54' W 006°15'1918.6
2016-Jul-28 21:33N 35°59' W 006°37'2618.6
2016-Jul-28 20:09N 36°05' W 007°08'1118.8
2016-Jul-28 19:33N 36°08' W 007°22'1919.1
2016-Jul-28 18:33N 36°13' W 007°45'1918.8
2016-Jul-28 17:33N 36°18' W 008°07'1918.9
2016-Jul-28 16:33N 36°23' W 008°30'1918.8
2016-Jul-28 15:33N 36°28' W 008°52'1918.7
2016-Jul-28 14:33N 36°33' W 009°15'1818.1
2016-Jul-28 13:33N 36°45' W 009°31'1918.7
2016-Jul-28 12:33N 37°03' W 009°38'1918.5
2016-Jul-28 11:33N 37°21' W 009°44'1818.5
2016-Jul-28 10:33N 37°39' W 009°50'1918.8
2016-Jul-28 09:33N 37°58' W 009°54'1918.6
2016-Jul-28 08:32N 38°16' W 009°59'1818.6
2016-Jul-28 07:33N 38°34' W 010°04'1918.6
2016-Jul-28 06:33N 38°52' W 010°07'1918.3
2016-Jul-28 05:31N 39°11' W 010°07'1818.7
2016-Jul-28 04:33N 39°30' W 010°08'55118.3
2016-Jul-26 22:29N 48°16' W 006°21'6616.8
2016-Jul-26 18:32N 49°07' W 005°18'5818.6
2016-Jul-26 15:25N 49°37' W 004°01'1718.9
2016-Jul-26 14:31N 49°45' W 003°38'1718.1
2016-Jul-26 13:34N 49°54' W 003°15'1717.1
2016-Jul-26 12:33N 50°02' W 002°52'2216.4
2016-Jul-26 11:12N 50°08' W 002°18'1116.3
2016-Jul-26 10:32N 50°13' W 002°03'1717.2
2016-Jul-26 09:33N 50°22' W 001°41'1515.4
2016-Jul-26 08:33N 50°29' W 001°20'1514.8
2016-Jul-26 07:33N 50°36' W 000°59'1312.8
2016-Jul-26 06:33N 50°46' W 001°12'10 9.6
2016-Jul-26 05:33N 50°52' W 001°23'2 2.1
2016-Jul-26 04:28N 50°54' W 001°25'0 0.0
2016-Jul-26 03:28N 50°54' W 001°25'0 0.0
2016-Jul-26 02:28N 50°54' W 001°25'0 0.0
2016-Jul-26 01:28N 50°54' W 001°25'0 0.0
2016-Jul-26 00:04N 50°54' W 001°25'0 0.0
2016-Jul-25 23:31N 50°54' W 001°25'0 0.0
2016-Jul-25 22:28N 50°54' W 001°25'0 0.0
2016-Jul-25 21:28N 50°54' W 001°25'0 0.0
2016-Jul-25 20:28N 50°54' W 001°25'0 0.0
2016-Jul-25 19:25N 50°54' W 001°25'0 0.0
2016-Jul-25 18:31N 50°54' W 001°25'0 0.0
2016-Jul-25 17:28N 50°54' W 001°25'0 0.0
2016-Jul-25 16:22N 50°54' W 001°25'0 0.1
2016-Jul-25 15:33N 50°54' W 001°25'7 7.5
2016-Jul-25 14:34N 50°48' W 001°17'1312.7
2016-Jul-25 13:33N 50°43' W 000°59'1414.2
2016-Jul-25 12:33N 50°35' W 000°41'1515.4
2016-Jul-25 11:33N 50°33' W 000°17'1615.5
2016-Jul-25 10:33N 50°33' E 000°07'1916.7
2016-Jul-25 09:26N 50°38' E 000°36'1617.7
2016-Jul-25 08:33N 50°46' E 000°57'1817.8
2016-Jul-25 07:33N 50°58' E 001°17'1616.4
2016-Jul-25 06:33N 51°09' E 001°37'1515.1
2016-Jul-25 05:33N 51°20' E 001°53'1212.3
2016-Jul-25 04:33N 51°21' E 002°13'1414.1
2016-Jul-25 03:34N 51°23' E 002°36'1312.7
2016-Jul-25 02:33N 51°23' E 002°56'1413.9
2016-Jul-25 01:34N 51°25' E 003°18'1212.0
2016-Jul-25 00:33N 51°26' E 003°37'1212.1
2016-Jul-24 23:34N 51°22' E 003°55'10 9.9
2016-Jul-24 22:34N 51°24' E 004°11'7 7.4
2016-Jul-24 21:33N 51°17' E 004°15'1 0.9
2016-Jul-24 20:33N 51°17' E 004°14'1 0.7
2016-Jul-24 19:32N 51°16' E 004°13'0 0.0
2016-Jul-24 18:32N 51°16' E 004°13'0 0.0
2016-Jul-24 17:32N 51°16' E 004°13'0 0.0
2016-Jul-24 16:32N 51°16' E 004°13'0 0.0
2016-Jul-24 15:33N 51°16' E 004°13'0 0.0
2016-Jul-24 14:32N 51°16' E 004°13'0 0.0
2016-Jul-24 13:32N 51°16' E 004°13'0 0.0
2016-Jul-24 12:32N 51°16' E 004°13'0 0.0
2016-Jul-24 11:32N 51°16' E 004°13'0 0.0
2016-Jul-24 10:32N 51°16' E 004°13'0 0.0
2016-Jul-24 09:32N 51°16' E 004°13'0 0.0
2016-Jul-24 08:32N 51°16' E 004°13'0 0.0
2016-Jul-24 07:32N 51°16' E 004°13'0 0.0
2016-Jul-24 06:34N 51°16' E 004°13'1 1.4
2016-Jul-24 05:34N 51°17' E 004°15'1 1.3
2016-Jul-24 04:33N 51°18' E 004°16'8 8.0
2016-Jul-24 03:34N 51°22' E 004°05'1212.2
2016-Jul-24 02:34N 51°22' E 003°46'1211.5
2016-Jul-24 01:33N 51°25' E 003°28'1717.2
2016-Jul-24 00:33N 51°26' E 003°00'1817.9
2016-Jul-23 23:33N 51°42' E 003°12'1414.6
2016-Jul-23 22:34N 51°56' E 003°18'1919.0
2016-Jul-23 21:33N 52°15' E 003°24'1818.2
2016-Jul-23 20:33N 52°33' E 003°29'1716.9
2016-Jul-23 19:33N 52°47' E 003°43'1716.6
2016-Jul-23 18:33N 52°59' E 004°02'1716.6
2016-Jul-23 17:33N 53°10' E 004°24'1717.3
2016-Jul-23 16:34N 53°26' E 004°33'1818.2
2016-Jul-23 15:34N 53°43' E 004°43'1818.2
2016-Jul-23 14:34N 54°00' E 004°56'1818.0
2016-Jul-23 13:34N 54°17' E 005°07'1817.8
2016-Jul-23 12:33N 54°33' E 005°18'23017.5
2016-Jul-22 23:26N 57°41' E 009°17'1517.0
2016-Jul-22 22:33N 57°48' E 009°42'1717.2
2016-Jul-22 21:34N 57°51' E 010°14'1818.2
2016-Jul-22 20:33N 57°51' E 010°48'1817.9
2016-Jul-22 19:33N 57°51' E 011°21'1313.0
2016-Jul-22 18:33N 57°58' E 011°43'3 3.0
2016-Jul-22 17:32N 58°01' E 011°42'0 0.0
2016-Jul-22 16:23N 58°01' E 011°42'0 0.0
2016-Jul-22 15:32N 58°01' E 011°42'0 0.0
2016-Jul-22 14:32N 58°01' E 011°42'0 0.0
2016-Jul-22 13:29N 58°01' E 011°42'0 0.0
2016-Jul-22 12:32N 58°01' E 011°42'0 0.0
2016-Jul-22 11:29N 58°01' E 011°42'0 0.0
2016-Jul-22 10:32N 58°01' E 011°42'0 0.0
2016-Jul-22 09:32N 58°01' E 011°42'0 0.0
2016-Jul-22 08:32N 58°01' E 011°42'0 0.0
2016-Jul-22 07:29N 58°01' E 011°42'0 0.0
2016-Jul-22 04:32N 58°01' E 011°42'0 0.0
2016-Jul-22 03:29N 58°01' E 011°42'0 0.0
2016-Jul-22 02:32N 58°01' E 011°42'0 0.0
2016-Jul-22 01:32N 58°01' E 011°42'0 0.0
2016-Jul-22 00:26N 58°01' E 011°42'0 0.0
2016-Jul-21 23:32N 58°01' E 011°42'0 0.0
2016-Jul-21 22:26N 58°01' E 011°42'0 0.0
2016-Jul-21 21:32N 58°01' E 011°42'0 0.0
2016-Jul-21 20:32N 58°01' E 011°42'0 0.0
2016-Jul-21 19:32N 58°01' E 011°42'0 0.0
2016-Jul-21 18:29N 58°01' E 011°42'0 0.0
2016-Jul-21 17:30N 58°01' E 011°42'3 3.1
2016-Jul-21 16:33N 57°58' E 011°43'1212.5
2016-Jul-21 15:33N 57°51' E 011°23'1111.4
2016-Jul-21 14:33N 57°51' E 011°02'1616.3
2016-Jul-21 13:33N 57°51' E 010°31'1716.8
2016-Jul-21 12:33N 57°50' E 009°60'1717.0
2016-Jul-21 11:33N 57°45' E 009°29'12416.7
2016-Jul-21 04:07N 56°02' E 007°25'1018.0
2016-Jul-21 03:33N 55°52' E 007°21'1818.0
2016-Jul-21 02:33N 55°34' E 007°15'1817.8
2016-Jul-21 01:34N 55°25' E 007°42'1616.4
2016-Jul-21 00:33N 55°25' E 008°11'9 9.0
2016-Jul-20 23:33N 55°28' E 008°26'0 0.3
2016-Jul-20 22:28N 55°28' E 008°27'0 0.0
2016-Jul-20 21:31N 55°28' E 008°27'0 0.0
2016-Jul-20 20:25N 55°28' E 008°27'0 0.0
2016-Jul-20 19:31N 55°28' E 008°27'0 0.0
2016-Jul-20 18:19N 55°28' E 008°27'0 0.0
2016-Jul-20 17:29N 55°28' E 008°27'0 0.0
2016-Jul-20 16:28N 55°28' E 008°27'0 0.5
2016-Jul-20 15:33N 55°27' E 008°26'6 5.6
2016-Jul-20 14:33N 55°27' E 008°16'9 9.1
2016-Jul-20 13:33N 55°21' E 008°04'5 4.6
2016-Jul-20 12:33N 55°18' E 007°57'5 5.2
2016-Jul-20 11:33N 55°15' E 007°50'8 8.2
2016-Jul-20 10:34N 55°09' E 007°39'8 8.3
2016-Jul-20 09:34N 55°04' E 007°28'9 8.8
2016-Jul-20 08:33N 54°59' E 007°16'9 8.8
2016-Jul-20 07:33N 54°55' E 007°02'9 8.6
2016-Jul-20 06:33N 54°51' E 006°49'18 8.3
2016-Jul-20 04:25N 54°42' E 006°22'8 7.9
2016-Jul-20 03:26N 54°39' E 006°10'15 7.7
2016-Jul-20 01:33N 54°32' E 005°48'8 7.8
2016-Jul-20 00:33N 54°28' E 005°36'8 7.9
2016-Jul-19 23:33N 54°24' E 005°25'8 8.2
2016-Jul-19 22:32N 54°20' E 005°12'12 8.5
2016-Jul-19 21:08N 54°13' E 004°56'5 8.7
2016-Jul-19 20:31N 54°10' E 004°49'10 8.6
2016-Jul-19 19:24N 54°02' E 004°39'8 9.0
2016-Jul-19 18:32N 53°55' E 004°34'9 9.3
2016-Jul-19 17:33N 53°48' E 004°24'10 9.7
2016-Jul-19 16:33N 53°42' E 004°10'10 9.5
2016-Jul-19 15:33N 53°36' E 003°57'10 9.9
2016-Jul-19 14:32N 53°30' E 003°45'1110.5
2016-Jul-19 13:27N 53°19' E 003°37'910.3
2016-Jul-19 12:32N 53°11' E 003°31'10 9.9
2016-Jul-19 11:33N 53°02' E 003°24'10 9.6
2016-Jul-19 10:33N 52°53' E 003°18'9 9.3
2016-Jul-19 09:33N 52°45' E 003°12'9 8.9
2016-Jul-19 08:29N 52°36' E 003°06'9 8.7
2016-Jul-19 07:30N 52°28' E 002°59'28 9.5
2016-Jul-19 04:33N 52°03' E 002°41'1111.1
2016-Jul-19 03:33N 51°52' E 002°37'1111.0
2016-Jul-19 02:33N 51°42' E 002°29'1211.8
2016-Jul-19 01:33N 51°33' E 002°17'  
Track history (hours):
 
Tides and Currents Weather Stations Pressure Air Temp Water Temp Dewpoint Dewpoint Depression Visibility Wind Speed Wind Dir Waves Ship Positions

Grande Europa

Last reported at 2016-Jul-29 01:27 UTC. Time now 2016-Jul-29 02:06 UTC.
Position N 36°00' W 005°07'.

Length 183 m; draft 8.9 m.

Type: Cargo ship. MMSI: 247206000.

Date/timePositionNaut miles runAvg speedWind from/ knotsBaromVisibWave heightAir tempDewpointWater temp
2016-Jul-29 01:27N 36°00' W 005°07'1719.2
2016-Jul-29 00:33N 35°57' W 005°28'2919.2
2016-Jul-28 23:04N 35°54' W 006°03'1018.9
2016-Jul-28 22:33N 35°54' W 006°15'1918.6
2016-Jul-28 21:33N 35°59' W 006°37'2618.6
2016-Jul-28 20:09N 36°05' W 007°08'1118.8
2016-Jul-28 19:33N 36°08' W 007°22'1919.1
2016-Jul-28 18:33N 36°13' W 007°45'1918.8
2016-Jul-28 17:33N 36°18' W 008°07'1918.9
2016-Jul-28 16:33N 36°23' W 008°30'1918.8
2016-Jul-28 15:33N 36°28' W 008°52'1918.7
2016-Jul-28 14:33N 36°33' W 009°15'1818.1
2016-Jul-28 13:33N 36°45' W 009°31'1918.7
2016-Jul-28 12:33N 37°03' W 009°38'1918.5
2016-Jul-28 11:33N 37°21' W 009°44'1818.5
2016-Jul-28 10:33N 37°39' W 009°50'1918.8
2016-Jul-28 09:33N 37°58' W 009°54'1918.6
2016-Jul-28 08:32N 38°16' W 009°59'1818.6
2016-Jul-28 07:33N 38°34' W 010°04'1918.6
2016-Jul-28 06:33N 38°52' W 010°07'1918.3
2016-Jul-28 05:31N 39°11' W 010°07'1818.7
2016-Jul-28 04:33N 39°30' W 010°08'55118.3
2016-Jul-26 22:29N 48°16' W 006°21'6616.8
2016-Jul-26 18:32N 49°07' W 005°18'5818.6
2016-Jul-26 15:25N 49°37' W 004°01'1718.9
2016-Jul-26 14:31N 49°45' W 003°38'1718.1
2016-Jul-26 13:34N 49°54' W 003°15'1717.1
2016-Jul-26 12:33N 50°02' W 002°52'2216.4
2016-Jul-26 11:12N 50°08' W 002°18'1116.3
2016-Jul-26 10:32N 50°13' W 002°03'1717.2
2016-Jul-26 09:33N 50°22' W 001°41'1515.4
2016-Jul-26 08:33N 50°29' W 001°20'1514.8
2016-Jul-26 07:33N 50°36' W 000°59'1312.8
2016-Jul-26 06:33N 50°46' W 001°12'10 9.6
2016-Jul-26 05:33N 50°52' W 001°23'2 2.1
2016-Jul-26 04:28N 50°54' W 001°25'0 0.0
2016-Jul-26 03:28N 50°54' W 001°25'0 0.0
2016-Jul-26 02:28N 50°54' W 001°25'0 0.0
2016-Jul-26 01:28N 50°54' W 001°25'0 0.0
2016-Jul-26 00:04N 50°54' W 001°25'0 0.0
2016-Jul-25 23:31N 50°54' W 001°25'0 0.0
2016-Jul-25 22:28N 50°54' W 001°25'0 0.0
2016-Jul-25 21:28N 50°54' W 001°25'0 0.0
2016-Jul-25 20:28N 50°54' W 001°25'0 0.0
2016-Jul-25 19:25N 50°54' W 001°25'0 0.0
2016-Jul-25 18:31N 50°54' W 001°25'0 0.0
2016-Jul-25 17:28N 50°54' W 001°25'0 0.0
2016-Jul-25 16:22N 50°54' W 001°25'0 0.1
2016-Jul-25 15:33N 50°54' W 001°25'7 7.5
2016-Jul-25 14:34N 50°48' W 001°17'1312.7
2016-Jul-25 13:33N 50°43' W 000°59'1414.2
2016-Jul-25 12:33N 50°35' W 000°41'1515.4
2016-Jul-25 11:33N 50°33' W 000°17'1615.5
2016-Jul-25 10:33N 50°33' E 000°07'1916.7
2016-Jul-25 09:26N 50°38' E 000°36'1617.7
2016-Jul-25 08:33N 50°46' E 000°57'1817.8
2016-Jul-25 07:33N 50°58' E 001°17'1616.4
2016-Jul-25 06:33N 51°09' E 001°37'1515.1
2016-Jul-25 05:33N 51°20' E 001°53'1212.3
2016-Jul-25 04:33N 51°21' E 002°13'1414.1
2016-Jul-25 03:34N 51°23' E 002°36'1312.7
2016-Jul-25 02:33N 51°23' E 002°56'1413.9
2016-Jul-25 01:34N 51°25' E 003°18'1212.0
2016-Jul-25 00:33N 51°26' E 003°37'1212.1
2016-Jul-24 23:34N 51°22' E 003°55'10 9.9
2016-Jul-24 22:34N 51°24' E 004°11'7 7.4
2016-Jul-24 21:33N 51°17' E 004°15'1 0.9
2016-Jul-24 20:33N 51°17' E 004°14'1 0.7
2016-Jul-24 19:32N 51°16' E 004°13'0 0.0
2016-Jul-24 18:32N 51°16' E 004°13'0 0.0
2016-Jul-24 17:32N 51°16' E 004°13'0 0.0
2016-Jul-24 16:32N 51°16' E 004°13'0 0.0
2016-Jul-24 15:33N 51°16' E 004°13'0 0.0
2016-Jul-24 14:32N 51°16' E 004°13'0 0.0
2016-Jul-24 13:32N 51°16' E 004°13'0 0.0
2016-Jul-24 12:32N 51°16' E 004°13'0 0.0
2016-Jul-24 11:32N 51°16' E 004°13'0 0.0
2016-Jul-24 10:32N 51°16' E 004°13'0 0.0
2016-Jul-24 09:32N 51°16' E 004°13'0 0.0
2016-Jul-24 08:32N 51°16' E 004°13'0 0.0
2016-Jul-24 07:32N 51°16' E 004°13'0 0.0
2016-Jul-24 06:34N 51°16' E 004°13'1 1.4
2016-Jul-24 05:34N 51°17' E 004°15'1 1.3
2016-Jul-24 04:33N 51°18' E 004°16'8 8.0
2016-Jul-24 03:34N 51°22' E 004°05'1212.2
2016-Jul-24 02:34N 51°22' E 003°46'1211.5
2016-Jul-24 01:33N 51°25' E 003°28'1717.2
2016-Jul-24 00:33N 51°26' E 003°00'1817.9
2016-Jul-23 23:33N 51°42' E 003°12'1414.6
2016-Jul-23 22:34N 51°56' E 003°18'1919.0
2016-Jul-23 21:33N 52°15' E 003°24'1818.2
2016-Jul-23 20:33N 52°33' E 003°29'1716.9
2016-Jul-23 19:33N 52°47' E 003°43'1716.6
2016-Jul-23 18:33N 52°59' E 004°02'1716.6
2016-Jul-23 17:33N 53°10' E 004°24'1717.3
2016-Jul-23 16:34N 53°26' E 004°33'1818.2
2016-Jul-23 15:34N 53°43' E 004°43'1818.2
2016-Jul-23 14:34N 54°00' E 004°56'1818.0
2016-Jul-23 13:34N 54°17' E 005°07'1817.8
2016-Jul-23 12:33N 54°33' E 005°18'23017.5
2016-Jul-22 23:26N 57°41' E 009°17'1517.0
2016-Jul-22 22:33N 57°48' E 009°42'1717.2
2016-Jul-22 21:34N 57°51' E 010°14'1818.2
2016-Jul-22 20:33N 57°51' E 010°48'1817.9
2016-Jul-22 19:33N 57°51' E 011°21'1313.0
2016-Jul-22 18:33N 57°58' E 011°43'3 3.0
2016-Jul-22 17:32N 58°01' E 011°42'0 0.0
2016-Jul-22 16:23N 58°01' E 011°42'0 0.0
2016-Jul-22 15:32N 58°01' E 011°42'0 0.0
2016-Jul-22 14:32N 58°01' E 011°42'0 0.0
2016-Jul-22 13:29N 58°01' E 011°42'0 0.0
2016-Jul-22 12:32N 58°01' E 011°42'0 0.0
2016-Jul-22 11:29N 58°01' E 011°42'0 0.0
2016-Jul-22 10:32N 58°01' E 011°42'0 0.0
2016-Jul-22 09:32N 58°01' E 011°42'0 0.0
2016-Jul-22 08:32N 58°01' E 011°42'0 0.0
2016-Jul-22 07:29N 58°01' E 011°42'0 0.0
2016-Jul-22 04:32N 58°01' E 011°42'0 0.0
2016-Jul-22 03:29N 58°01' E 011°42'0 0.0
2016-Jul-22 02:32N 58°01' E 011°42'0 0.0
2016-Jul-22 01:32N 58°01' E 011°42'0 0.0
2016-Jul-22 00:26N 58°01' E 011°42'0 0.0
2016-Jul-21 23:32N 58°01' E 011°42'0 0.0
2016-Jul-21 22:26N 58°01' E 011°42'0 0.0
2016-Jul-21 21:32N 58°01' E 011°42'0 0.0
2016-Jul-21 20:32N 58°01' E 011°42'0 0.0
2016-Jul-21 19:32N 58°01' E 011°42'0 0.0
2016-Jul-21 18:29N 58°01' E 011°42'0 0.0
2016-Jul-21 17:30N 58°01' E 011°42'3 3.1
2016-Jul-21 16:33N 57°58' E 011°43'1212.5
2016-Jul-21 15:33N 57°51' E 011°23'1111.4
2016-Jul-21 14:33N 57°51' E 011°02'1616.3
2016-Jul-21 13:33N 57°51' E 010°31'1716.8
2016-Jul-21 12:33N 57°50' E 009°60'1717.0
2016-Jul-21 11:33N 57°45' E 009°29'12416.7
2016-Jul-21 04:07N 56°02' E 007°25'1018.0
2016-Jul-21 03:33N 55°52' E 007°21'1818.0
2016-Jul-21 02:33N 55°34' E 007°15'1817.8
2016-Jul-21 01:34N 55°25' E 007°42'1616.4
2016-Jul-21 00:33N 55°25' E 008°11'9 9.0
2016-Jul-20 23:33N 55°28' E 008°26'0 0.3
2016-Jul-20 22:28N 55°28' E 008°27'0 0.0
2016-Jul-20 21:31N 55°28' E 008°27'0 0.0
2016-Jul-20 20:25N 55°28' E 008°27'0 0.0
2016-Jul-20 19:31N 55°28' E 008°27'0 0.0
2016-Jul-20 18:19N 55°28' E 008°27'0 0.0
2016-Jul-20 17:29N 55°28' E 008°27'0 0.0
2016-Jul-20 16:28N 55°28' E 008°27'0 0.5
2016-Jul-20 15:33N 55°27' E 008°26'6 5.6
2016-Jul-20 14:33N 55°27' E 008°16'9 9.1
2016-Jul-20 13:33N 55°21' E 008°04'5 4.6
2016-Jul-20 12:33N 55°18' E 007°57'5 5.2
2016-Jul-20 11:33N 55°15' E 007°50'8 8.2
2016-Jul-20 10:34N 55°09' E 007°39'8 8.3
2016-Jul-20 09:34N 55°04' E 007°28'9 8.8
2016-Jul-20 08:33N 54°59' E 007°16'9 8.8
2016-Jul-20 07:33N 54°55' E 007°02'9 8.6
2016-Jul-20 06:33N 54°51' E 006°49'18 8.3
2016-Jul-20 04:25N 54°42' E 006°22'8 7.9
2016-Jul-20 03:26N 54°39' E 006°10'15 7.7
2016-Jul-20 01:33N 54°32' E 005°48'8 7.8
2016-Jul-20 00:33N 54°28' E 005°36'8 7.9
2016-Jul-19 23:33N 54°24' E 005°25'8 8.2
2016-Jul-19 22:32N 54°20' E 005°12'12 8.5
2016-Jul-19 21:08N 54°13' E 004°56'5 8.7
2016-Jul-19 20:31N 54°10' E 004°49'10 8.6
2016-Jul-19 19:24N 54°02' E 004°39'8 9.0
2016-Jul-19 18:32N 53°55' E 004°34'9 9.3
2016-Jul-19 17:33N 53°48' E 004°24'10 9.7
2016-Jul-19 16:33N 53°42' E 004°10'10 9.5
2016-Jul-19 15:33N 53°36' E 003°57'10 9.9
2016-Jul-19 14:32N 53°30' E 003°45'1110.5
2016-Jul-19 13:27N 53°19' E 003°37'910.3
2016-Jul-19 12:32N 53°11' E 003°31'10 9.9
2016-Jul-19 11:33N 53°02' E 003°24'10 9.6
2016-Jul-19 10:33N 52°53' E 003°18'9 9.3
2016-Jul-19 09:33N 52°45' E 003°12'9 8.9
2016-Jul-19 08:29N 52°36' E 003°06'9 8.7
2016-Jul-19 07:30N 52°28' E 002°59'28 9.5
2016-Jul-19 04:33N 52°03' E 002°41'1111.1
2016-Jul-19 03:33N 51°52' E 002°37'1111.0
2016-Jul-19 02:33N 51°42' E 002°29'1211.8
2016-Jul-19 01:33N 51°33' E 002°17'  

Dump ship's entire track history